Time;durP1;ratioP1;P1;durP2;ratioP2;P2;SDS_P1;SDS_P2;PMS_P1;PMS_P2;Temp;Humidity;BMP_temperature;BMP_pressure;BME280_temperature;BME280_humidity;BME280_pressure;Samples;Min_cycle;Max_cycle;Signal;HPM_P1;HPM_P2
2023/01/27 00:00:42;;;;;;;5.07;2.92;;;;;;;4.46;100.00;102068.06;5060771;28;20098;-76
2023/01/27 00:03:12;;;;;;;6.55;3.28;;;;;;;4.41;100.00;102072.81;5056922;28;20542;-76
2023/01/27 00:05:37;;;;;;;7.10;3.17;;;;;;;4.41;100.00;102072.81;5073807;28;20032;-76
2023/01/27 00:08:03;;;;;;;4.90;2.92;;;;;;;4.39;100.00;102080.09;5074853;28;20033;-76
2023/01/27 00:10:28;;;;;;;6.30;2.72;;;;;;;4.34;100.00;102087.53;5056359;28;20112;-76
2023/01/27 00:15:38;;;;;;;5.05;2.65;;;;;;;4.45;100.00;102090.47;5073323;28;20032;-76
2023/01/27 00:18:04;;;;;;;9.82;4.22;;;;;;;4.33;100.00;102085.81;5074411;28;20031;-76
2023/01/27 00:26:05;;;;;;;10.80;4.28;;;;;;;4.14;100.00;102080.63;5073835;28;20033;-76
2023/01/27 00:28:34;;;;;;;12.88;3.95;;;;;;;4.30;100.00;102094.00;5057072;28;20024;-76
2023/01/27 00:30:59;;;;;;;6.68;4.32;;;;;;;4.22;100.00;102093.59;5055970;28;20041;-76
2023/01/27 00:33:26;;;;;;;6.90;4.32;;;;;;;4.03;100.00;102089.25;5074311;28;20093;-76
2023/01/27 00:36:03;;;;;;;8.77;4.03;;;;;;;4.28;100.00;102090.56;5047786;28;20041;-76
2023/01/27 00:38:31;;;;;;;14.27;3.63;;;;;;;4.20;100.00;102095.50;5036268;28;20025;-75
2023/01/27 00:41:18;;;;;;;9.63;4.68;;;;;;;4.19;100.00;102088.41;5035403;28;20037;-75
2023/01/27 00:43:52;;;;;;;8.02;3.83;;;;;;;4.24;100.00;102103.28;5036273;28;20025;-75
2023/01/27 00:46:19;;;;;;;9.25;3.90;;;;;;;4.39;100.00;102098.88;5035558;28;20049;-75
2023/01/27 00:48:45;;;;;;;12.40;4.53;;;;;;;4.40;100.00;102103.28;5054085;28;20044;-75
2023/01/27 00:51:12;;;;;;;6.63;3.28;;;;;;;4.46;100.00;102105.59;5035285;28;20029;-75
2023/01/27 00:53:37;;;;;;;10.68;3.70;;;;;;;4.40;100.00;102107.78;5035742;28;20028;-75
2023/01/27 00:56:03;;;;;;;7.47;3.78;;;;;;;4.43;100.00;102112.94;5053055;28;20034;-75
2023/01/27 00:58:28;;;;;;;9.57;4.53;;;;;;;4.55;100.00;102123.84;5035830;28;20028;-75
2023/01/27 01:01:00;;;;;;;8.75;4.57;;;;;;;4.33;100.00;102117.97;5035186;28;20075;-75
2023/01/27 01:03:30;;;;;;;6.80;4.25;;;;;;;4.35;100.00;102116.94;5036504;28;20017;-76
2023/01/27 01:06:00;;;;;;;14.18;4.72;;;;;;;4.52;100.00;102118.66;5051632;28;20047;-76
2023/01/27 01:08:27;;;;;;;8.88;4.55;;;;;;;4.59;100.00;102125.41;5045898;28;20091;-76
2023/01/27 01:10:53;;;;;;;11.10;4.45;;;;;;;4.64;100.00;102127.81;5054359;28;20051;-76
2023/01/27 01:13:20;;;;;;;6.80;4.40;;;;;;;4.62;100.00;102125.19;5047051;28;20029;-76
2023/01/27 01:15:46;;;;;;;7.43;5.10;;;;;;;4.73;100.00;102131.78;5072126;28;20563;-76
2023/01/27 01:18:11;;;;;;;9.70;4.65;;;;;;;4.59;100.00;102129.91;5065193;28;20021;-75
2023/01/27 01:20:39;;;;;;;10.00;4.22;;;;;;;4.63;100.00;102137.69;5054070;28;20032;-75
2023/01/27 01:23:06;;;;;;;8.52;4.63;;;;;;;4.74;100.00;102139.72;5056148;28;20033;-75
2023/01/27 01:25:32;;;;;;;8.30;5.10;;;;;;;4.69;100.00;102143.63;5045623;28;20025;-76
2023/01/27 01:27:57;;;;;;;9.13;4.32;;;;;;;4.53;100.00;102136.47;5072700;28;20028;-76
2023/01/27 01:30:25;;;;;;;13.30;5.45;;;;;;;4.55;100.00;102134.56;5042537;28;20033;-76
2023/01/27 01:32:52;;;;;;;9.35;4.97;;;;;;;4.72;100.00;102135.41;5050440;28;20600;-77
2023/01/27 01:35:18;;;;;;;12.73;6.07;;;;;;;4.57;100.00;102138.03;5037961;28;20043;-76
2023/01/27 01:37:43;;;;;;;11.90;5.75;;;;;;;4.66;100.00;102135.78;5054427;28;20032;-75
2023/01/27 01:40:11;;;;;;;9.57;5.70;;;;;;;4.60;100.00;102143.22;5053733;28;20028;-76
2023/01/27 01:42:51;;;;;;;12.40;5.38;;;;;;;4.52;100.00;102145.47;5067464;28;20025;-76
2023/01/27 01:45:35;;;;;;;10.10;6.32;;;;;;;4.42;100.00;102152.31;5035436;28;20383;-76
2023/01/27 01:48:19;;;;;;;10.35;5.72;;;;;;;4.41;100.00;102142.53;5045936;28;20448;-75
2023/01/27 01:50:52;;;;;;;11.98;6.03;;;;;;;4.30;100.00;102134.22;5053360;28;20083;-78
2023/01/27 01:53:19;;;;;;;10.77;5.95;;;;;;;4.47;100.00;102152.06;5054300;28;20495;-75
2023/01/27 01:55:45;;;;;;;14.77;6.15;;;;;;;4.38;100.00;102148.09;5071406;28;20148;-76
2023/01/27 01:58:11;;;;;;;11.15;5.90;;;;;;;4.51;100.00;102149.13;5036982;28;20053;-76
2023/01/27 02:00:37;;;;;;;16.63;7.00;;;;;;;4.47;100.00;102152.06;5038332;28;20032;-76
2023/01/27 02:03:03;;;;;;;10.90;6.45;;;;;;;4.43;100.00;102151.34;5054199;28;20048;-76
2023/01/27 02:05:33;;;;;;;16.83;7.38;;;;;;;4.47;100.00;102152.91;5041792;28;20056;-76
2023/01/27 02:08:09;;;;;;;12.50;6.45;;;;;;;4.43;100.00;102162.06;5060060;28;20033;-75
2023/01/27 02:10:34;;;;;;;13.75;6.85;;;;;;;4.53;100.00;102152.56;5041554;28;20066;-76
2023/01/27 02:13:00;;;;;;;16.52;7.90;;;;;;;4.51;100.00;102159.84;5042770;28;20115;-76
2023/01/27 02:15:28;;;;;;;10.25;6.45;;;;;;;4.41;100.00;102164.00;5070425;28;20032;-76
2023/01/27 02:17:54;;;;;;;12.63;6.80;;;;;;;4.39;100.00;102171.25;5046015;28;20032;-76
2023/01/27 02:20:29;;;;;;;10.93;6.35;;;;;;;4.39;100.00;102157.84;5044855;28;20039;-75
2023/01/27 02:23:13;;;;;;;11.55;5.60;;;;;;;4.46;100.00;102167.28;5054034;28;20029;-76
2023/01/27 02:25:45;;;;;;;15.45;6.53;;;;;;;4.39;100.00;102160.53;5045867;28;20036;-76
2023/01/27 02:28:11;;;;;;;13.63;5.80;;;;;;;4.31;100.00;102162.78;5053548;28;20032;-76
2023/01/27 02:30:36;;;;;;;10.43;5.70;;;;;;;4.24;100.00;102164.09;5052599;28;20512;-75
2023/01/27 02:33:01;;;;;;;8.68;5.80;;;;;;;4.39;100.00;102179.31;5039217;28;20482;-75
2023/01/27 02:35:42;;;;;;;9.88;5.32;;;;;;;4.55;100.00;102172.09;5067531;28;20033;-77
2023/01/27 02:38:11;;;;;;;12.40;5.68;;;;;;;4.40;100.00;102183.72;5050596;28;20028;-77
2023/01/27 02:40:38;;;;;;;13.68;6.15;;;;;;;4.55;100.00;102193.56;5048146;28;20051;-76
2023/01/27 02:43:04;;;;;;;11.70;5.70;;;;;;;4.46;100.00;102182.50;5033633;28;20025;-76
2023/01/27 02:45:29;;;;;;;19.80;6.60;;;;;;;4.52;100.00;102185.72;5040834;28;20086;-77
2023/01/27 02:47:54;;;;;;;9.98;5.43;;;;;;;4.32;100.00;102185.97;5040682;28;20030;-75
2023/01/27 02:50:20;;;;;;;11.73;5.45;;;;;;;4.43;100.00;102186.22;5062251;28;20090;-75
2023/01/27 02:52:45;;;;;;;13.30;6.03;;;;;;;4.37;100.00;102189.28;5053469;28;20024;-77
2023/01/27 02:55:10;;;;;;;6.85;5.10;;;;;;;4.49;100.00;102199.28;5071225;28;20439;-76
2023/01/27 02:57:36;;;;;;;10.35;5.38;;;;;;;4.29;100.00;102186.13;5053800;28;20040;-76
2023/01/27 03:00:01;;;;;;;6.68;4.70;;;;;;;4.33;100.00;102193.06;5037226;28;20033;-77
2023/01/27 03:02:29;;;;;;;12.23;5.75;;;;;;;4.27;100.00;102199.63;5051538;28;20033;-74
2023/01/27 03:04:59;;;;;;;8.27;5.85;;;;;;;4.20;100.00;102197.38;5051043;28;20029;-75
2023/01/27 03:07:25;;;;;;;9.93;5.90;;;;;;;4.26;100.00;102202.41;5051790;28;20033;-75
2023/01/27 03:09:50;;;;;;;9.05;6.03;;;;;;;4.26;100.00;102197.03;5033366;28;20033;-75
2023/01/27 03:12:18;;;;;;;8.07;5.82;;;;;;;4.20;100.00;102219.69;5033867;28;20033;-76
2023/01/27 03:20:12;;;;;;;8.88;4.90;;;;;;;4.21;100.00;102215.19;5050939;28;20044;-75
2023/01/27 03:22:37;;;;;;;7.50;4.03;;;;;;;4.05;100.00;102210.66;5033466;28;20025;-76
2023/01/27 03:25:03;;;;;;;7.75;4.60;;;;;;;4.08;100.00;102214.97;5033279;28;20506;-76
2023/01/27 03:27:28;;;;;;;7.93;4.43;;;;;;;4.30;100.00;102217.34;5033421;28;20021;-76
2023/01/27 03:29:54;;;;;;;7.50;4.55;;;;;;;4.21;100.00;102225.91;5051123;28;20102;-75
2023/01/27 03:32:20;;;;;;;8.18;4.82;;;;;;;4.08;100.00;102231.94;5035762;28;20040;-75
2023/01/27 03:34:45;;;;;;;8.05;4.50;;;;;;;4.26;100.00;102231.88;5037138;28;20120;-76
2023/01/27 03:48:07;;;;;;;9.45;4.60;;;;;;;4.20;100.00;102250.97;5063252;28;20040;-75
2023/01/27 03:50:42;;;;;;;7.07;4.80;;;;;;;3.98;100.00;102252.16;5056214;28;20489;-75
2023/01/27 03:53:11;;;;;;;7.15;4.90;;;;;;;4.00;100.00;102249.38;5056968;28;20158;-76
2023/01/27 03:55:37;;;;;;;8.88;4.43;;;;;;;4.05;100.00;102250.00;5056135;28;20520;-74
2023/01/27 03:58:18;;;;;;;8.27;4.70;;;;;;;4.01;100.00;102259.16;5048291;28;20102;-75
2023/01/27 04:00:56;;;;;;;6.60;4.50;;;;;;;3.96;100.00;102259.38;5040691;28;20081;-74
2023/01/27 04:08:55;;;;;;;7.05;4.45;;;;;;;4.07;100.00;102262.38;5053679;28;20131;-74
2023/01/27 04:14:05;;;;;;;5.32;3.92;;;;;;;3.88;100.00;102261.59;5074069;28;20028;-74
2023/01/27 04:16:32;;;;;;;5.68;4.15;;;;;;;3.81;100.00;102265.56;5054010;28;20021;-74
2023/01/27 04:18:57;;;;;;;3.90;3.40;;;;;;;3.86;100.00;102260.84;5051019;28;20072;-74
2023/01/27 04:21:24;;;;;;;5.20;2.92;;;;;;;3.88;100.00;102266.97;5056939;28;20056;-73
2023/01/27 04:23:50;;;;;;;7.80;3.08;;;;;;;3.80;100.00;102258.47;5055684;28;20074;-73
2023/01/27 04:26:16;;;;;;;3.58;2.92;;;;;;;3.78;100.00;102268.38;5074419;28;20205;-75
2023/01/27 04:28:42;;;;;;;6.53;2.70;;;;;;;3.69;100.00;102260.84;5056425;28;20115;-74
2023/01/27 04:31:07;;;;;;;4.50;3.25;;;;;;;3.75;100.00;102265.88;5055703;28;20036;-73
2023/01/27 04:33:32;;;;;;;4.40;3.20;;;;;;;3.88;100.00;102263.44;5074388;28;20024;-73
2023/01/27 04:35:58;;;;;;;5.05;3.17;;;;;;;3.88;100.00;102272.31;5055583;28;20101;-74
2023/01/27 04:38:23;;;;;;;7.70;3.70;;;;;;;3.74;100.00;102280.22;5056106;28;20028;-74
2023/01/27 04:40:48;;;;;;;4.97;3.58;;;;;;;3.94;100.00;102276.50;5055292;28;20055;-74
2023/01/27 04:43:14;;;;;;;6.10;3.75;;;;;;;3.83;100.00;102279.72;5055977;28;20020;-74
2023/01/27 04:45:39;;;;;;;5.28;4.03;;;;;;;3.71;100.00;102280.38;5061451;28;20462;-74
2023/01/27 04:48:05;;;;;;;9.38;4.43;;;;;;;3.71;100.00;102285.72;5036267;28;20086;-74
2023/01/27 04:50:31;;;;;;;6.32;3.70;;;;;;;3.72;100.00;102282.13;5072037;28;20110;-74
2023/01/27 04:52:56;;;;;;;6.03;3.67;;;;;;;3.82;100.00;102283.38;5056066;28;20032;-74
2023/01/27 04:55:22;;;;;;;9.23;3.50;;;;;;;3.66;100.00;102298.50;5055528;28;20035;-74
2023/01/27 04:57:47;;;;;;;5.75;3.28;;;;;;;3.60;100.00;102299.69;5073405;28;20085;-75
2023/01/27 05:00:13;;;;;;;7.65;2.75;;;;;;;3.65;100.00;102302.09;5065380;28;20048;-74
2023/01/27 05:02:38;;;;;;;7.57;3.28;;;;;;;3.66;100.00;102306.53;5035734;28;20029;-74
2023/01/27 05:05:04;;;;;;;5.75;3.10;;;;;;;3.72;100.00;102306.25;5035797;28;20112;-74
2023/01/27 05:07:30;;;;;;;5.32;3.70;;;;;;;3.76;100.00;102315.81;5053372;28;20020;-74
2023/01/27 05:09:55;;;;;;;6.53;4.15;;;;;;;3.70;100.00;102316.16;5035079;28;20434;-74
2023/01/27 05:12:21;;;;;;;4.85;3.22;;;;;;;3.70;100.00;102314.31;5035490;28;20063;-75
2023/01/27 05:14:46;;;;;;;6.72;3.45;;;;;;;3.75;100.00;102312.28;5035230;28;20045;-74
2023/01/27 05:17:11;;;;;;;5.95;3.33;;;;;;;3.76;100.00;102310.47;5035462;28;20032;-74
2023/01/27 05:19:37;;;;;;;7.82;3.47;;;;;;;3.61;100.00;102316.63;5034885;28;20040;-75
2023/01/27 05:22:02;;;;;;;6.28;3.38;;;;;;;3.74;100.00;102323.94;5053013;28;20063;-74
2023/01/27 05:24:27;;;;;;;6.93;3.17;;;;;;;3.68;100.00;102323.41;5035004;28;20044;-74
2023/01/27 05:26:53;;;;;;;8.82;3.38;;;;;;;3.79;100.00;102315.69;5053592;28;20082;-74
2023/01/27 05:29:18;;;;;;;10.80;3.40;;;;;;;3.88;100.00;102309.84;5052611;28;20033;-74
2023/01/27 05:31:43;;;;;;;11.63;4.25;;;;;;;3.90;100.00;102317.78;5035428;28;20066;-75
2023/01/27 05:34:09;;;;;;;6.68;3.65;;;;;;;3.89;100.00;102311.56;5034705;28;20060;-74
2023/01/27 05:36:34;;;;;;;5.22;3.60;;;;;;;3.81;100.00;102313.78;5052620;28;20031;-75
2023/01/27 05:39:00;;;;;;;11.48;3.30;;;;;;;3.82;100.00;102318.19;5034244;28;20040;-74
2023/01/27 05:41:27;;;;;;;12.88;3.65;;;;;;;3.86;100.00;102306.38;5035082;28;20033;-74
2023/01/27 05:43:54;;;;;;;5.35;2.88;;;;;;;3.69;100.00;102314.41;5034404;28;20116;-75
2023/01/27 05:46:25;;;;;;;8.15;2.85;;;;;;;3.65;100.00;102318.19;5035273;28;20132;-74
2023/01/27 05:48:54;;;;;;;9.23;3.13;;;;;;;3.45;100.00;102304.00;5052440;28;20055;-75
2023/01/27 05:51:21;;;;;;;5.18;1.85;;;;;;;3.27;100.00;102302.25;5034600;28;20255;-75
2023/01/27 05:53:47;;;;;;;6.57;2.15;;;;;;;3.30;100.00;102317.28;5035406;28;20033;-74
2023/01/27 05:56:16;;;;;;;4.13;1.40;;;;;;;3.32;100.00;102316.25;5051077;28;20032;-74
2023/01/27 05:58:41;;;;;;;5.15;2.03;;;;;;;3.16;100.00;102326.00;5034985;28;20385;-75
2023/01/27 06:01:08;;;;;;;8.82;3.58;;;;;;;3.29;100.00;102337.84;5034188;28;20041;-75
2023/01/27 06:03:33;;;;;;;9.95;2.20;;;;;;;3.08;100.00;102338.88;5034481;28;20100;-75
2023/01/27 06:05:59;;;;;;;8.80;2.13;;;;;;;3.19;100.00;102336.53;5051856;28;20115;-75
2023/01/27 06:08:25;;;;;;;8.18;2.22;;;;;;;3.09;100.00;102340.63;5052276;28;20025;-75
2023/01/27 06:10:52;;;;;;;10.73;2.70;;;;;;;3.12;100.00;102335.09;5033824;28;20101;-75
2023/01/27 06:13:20;;;;;;;10.68;2.58;;;;;;;3.12;100.00;102351.16;5052066;28;20075;-76
2023/01/27 06:15:46;;;;;;;10.85;2.33;;;;;;;3.03;100.00;102347.13;5051618;28;20488;-75
2023/01/27 06:18:12;;;;;;;5.40;2.40;;;;;;;3.16;100.00;102352.75;5052359;28;20505;-75
2023/01/27 06:20:37;;;;;;;6.68;2.28;;;;;;;3.02;100.00;102355.22;5033598;28;20033;-75
2023/01/27 06:23:03;;;;;;;8.02;2.47;;;;;;;3.28;100.00;102362.88;5052122;28;20028;-75
2023/01/27 06:25:29;;;;;;;6.53;3.00;;;;;;;3.25;100.00;102357.66;5034064;28;20029;-76
2023/01/27 06:27:55;;;;;;;12.50;2.60;;;;;;;3.20;100.00;102365.06;5034418;28;20059;-76
2023/01/27 06:30:21;;;;;;;15.43;2.50;;;;;;;3.48;100.00;102370.78;5034131;28;20044;-76
2023/01/27 06:32:46;;;;;;;4.82;2.63;;;;;;;3.16;100.00;102368.81;5034224;28;20052;-75
2023/01/27 06:35:11;;;;;;;7.95;2.95;;;;;;;3.18;100.00;102369.59;5034186;28;20061;-76
2023/01/27 06:37:37;;;;;;;7.90;3.30;;;;;;;3.30;100.00;102377.03;5034487;28;20029;-75
2023/01/27 06:40:03;;;;;;;13.05;3.58;;;;;;;3.31;100.00;102384.13;5033746;28;20111;-76
2023/01/27 06:42:29;;;;;;;11.27;3.60;;;;;;;3.39;100.00;102381.06;5034406;28;20113;-75
2023/01/27 06:44:54;;;;;;;6.15;3.40;;;;;;;3.31;100.00;102386.81;5033843;28;20120;-75
2023/01/27 06:47:20;;;;;;;6.55;3.50;;;;;;;3.24;100.00;102383.56;5034048;28;20039;-75
2023/01/27 06:49:45;;;;;;;11.13;4.90;;;;;;;3.16;100.00;102384.88;5033841;28;20029;-75
2023/01/27 06:52:10;;;;;;;13.73;4.93;;;;;;;3.23;100.00;102386.31;5034260;28;20028;-75
2023/01/27 06:54:36;;;;;;;5.85;3.10;;;;;;;3.28;100.00;102389.66;5033629;28;20053;-75
2023/01/27 06:57:02;;;;;;;9.40;3.50;;;;;;;3.25;100.00;102396.00;5034906;28;20029;-75
2023/01/27 06:59:27;;;;;;;10.95;4.20;;;;;;;3.39;100.00;102402.50;5034030;28;20090;-75
2023/01/27 07:01:52;;;;;;;7.45;3.67;;;;;;;3.44;100.00;102401.31;5034326;28;20029;-76
2023/01/27 07:04:17;;;;;;;6.97;2.80;;;;;;;3.29;100.00;102412.78;5033627;28;20037;-75
2023/01/27 07:06:43;;;;;;;8.88;3.80;;;;;;;3.32;100.00;102407.28;5052628;28;20106;-75
2023/01/27 07:09:08;;;;;;;9.32;3.83;;;;;;;3.25;100.00;102421.91;5037924;28;20028;-75
2023/01/27 07:11:34;;;;;;;6.15;4.22;;;;;;;3.26;100.00;102419.16;5055240;28;20085;-75
2023/01/27 07:13:59;;;;;;;14.10;4.25;;;;;;;3.29;100.00;102434.22;5037443;28;20028;-75
2023/01/27 07:16:25;;;;;;;24.27;5.07;;;;;;;3.38;100.00;102433.75;5037690;28;20032;-75
2023/01/27 07:18:50;;;;;;;9.40;4.45;;;;;;;3.21;100.00;102436.38;5036754;28;20024;-75
2023/01/27 07:21:15;;;;;;;9.02;4.45;;;;;;;3.22;100.00;102432.75;5037536;28;20025;-76
2023/01/27 07:23:40;;;;;;;11.93;4.88;;;;;;;3.29;100.00;102442.22;5037862;28;20021;-75
2023/01/27 07:26:06;;;;;;;13.13;6.72;;;;;;;3.35;100.00;102449.97;5037096;28;20037;-76
2023/01/27 07:28:31;;;;;;;11.30;5.47;;;;;;;3.29;100.00;102449.41;5037301;28;20036;-76
2023/01/27 07:31:00;;;;;;;10.20;5.20;;;;;;;3.19;100.00;102454.31;5054441;28;20091;-75
2023/01/27 07:33:25;;;;;;;13.57;5.32;;;;;;;3.21;100.00;102447.09;5037087;28;20124;-68
2023/01/27 07:35:51;;;;;;;11.20;4.45;;;;;;;3.15;100.00;102458.09;5055828;28;20115;-68
2023/01/27 07:38:16;;;;;;;9.05;4.78;;;;;;;3.29;100.00;102458.28;5048573;28;20036;-68
2023/01/27 07:40:41;;;;;;;6.63;4.20;;;;;;;3.28;100.00;102459.25;5073433;28;20029;-68
2023/01/27 07:43:09;;;;;;;13.52;4.65;;;;;;;3.14;100.00;102451.00;5050436;28;20392;-68
2023/01/27 07:45:34;;;;;;;11.52;5.90;;;;;;;3.43;100.00;102452.28;5047002;28;20076;-68
2023/01/27 07:48:05;;;;;;;13.27;5.22;;;;;;;3.36;100.00;102450.84;5043410;28;20096;-68
2023/01/27 07:50:31;;;;;;;11.82;5.20;;;;;;;3.45;100.00;102461.97;5044649;28;20082;-68
2023/01/27 07:53:02;;;;;;;9.82;4.50;;;;;;;3.53;100.00;102454.47;5069744;28;20104;-68
2023/01/27 07:55:29;;;;;;;11.93;3.78;;;;;;;3.36;100.00;102462.41;5052455;28;20036;-68
2023/01/27 07:57:55;;;;;;;11.60;3.40;;;;;;;3.69;100.00;102459.94;5066070;28;20050;-68
2023/01/27 08:00:21;;;;;;;11.68;4.38;;;;;;;3.67;100.00;102458.28;5040325;28;20050;-68
2023/01/27 08:02:54;;;;;;;6.13;2.72;;;;;;;3.56;100.00;102463.28;5059913;28;20170;-68
2023/01/27 08:05:21;;;;;;;6.05;2.33;;;;;;;3.57;100.00;102465.88;5033453;28;20033;-68
2023/01/27 08:07:46;;;;;;;8.45;3.50;;;;;;;3.52;100.00;102463.44;5035506;28;20036;-68
2023/01/27 08:10:12;;;;;;;15.07;2.97;;;;;;;3.59;100.00;102479.22;5047137;28;20033;-66
2023/01/27 08:12:37;;;;;;;9.45;2.97;;;;;;;3.54;100.00;102477.63;5070805;28;20040;-67
2023/01/27 08:15:04;;;;;;;6.40;2.58;;;;;;;3.58;100.00;102472.09;5042811;28;20041;-67
2023/01/27 08:17:29;;;;;;;10.75;2.58;;;;;;;3.72;100.00;102469.63;5069145;28;20099;-67
2023/01/27 08:19:55;;;;;;;7.72;2.47;;;;;;;3.71;100.00;102473.25;5017137;28;20438;-67
2023/01/27 08:22:20;;;;;;;8.00;2.72;;;;;;;3.72;100.00;102477.69;5057441;28;20057;-71
2023/01/27 08:24:47;;;;;;;6.25;3.17;;;;;;;3.73;100.00;102476.72;5043997;28;20829;-69
2023/01/27 08:27:12;;;;;;;10.02;3.17;;;;;;;3.60;100.00;102478.28;5056163;28;20033;-70
2023/01/27 08:29:38;;;;;;;13.02;3.40;;;;;;;3.62;100.00;102485.28;5033519;28;20031;-70
2023/01/27 08:32:03;;;;;;;7.45;2.53;;;;;;;3.62;100.00;102489.75;5039956;28;20055;-70
2023/01/27 08:34:29;;;;;;;8.05;2.80;;;;;;;3.68;100.00;102490.34;5039450;28;20017;-72
2023/01/27 08:36:54;;;;;;;9.77;3.50;;;;;;;3.53;100.00;102486.59;5062214;28;20127;-72
2023/01/27 08:39:19;;;;;;;7.95;3.28;;;;;;;3.49;100.00;102501.06;5042288;28;20034;-72
2023/01/27 08:41:45;;;;;;;8.77;4.13;;;;;;;3.49;100.00;102498.38;5041363;28;20089;-72
2023/01/27 08:44:10;;;;;;;10.23;4.10;;;;;;;3.40;100.00;102490.78;5055408;28;20025;-72
2023/01/27 08:46:35;;;;;;;8.98;3.78;;;;;;;3.51;100.00;102488.47;5035610;28;20044;-72
2023/01/27 08:49:01;;;;;;;7.72;3.58;;;;;;;3.59;100.00;102495.28;5040678;28;20025;-73
2023/01/27 08:51:26;;;;;;;9.85;4.50;;;;;;;3.43;100.00;102496.00;5047793;28;20029;-73
2023/01/27 08:53:51;;;;;;;11.63;4.65;;;;;;;3.39;100.00;102494.41;5037010;28;20029;-73
2023/01/27 08:56:17;;;;;;;15.90;4.82;;;;;;;3.38;100.00;102508.72;5066639;28;20048;-74
2023/01/27 08:58:44;;;;;;;16.35;4.63;;;;;;;3.63;100.00;102502.22;5043558;28;20132;-71
2023/01/27 09:01:10;;;;;;;12.70;5.47;;;;;;;3.60;100.00;102507.72;5041337;28;20041;-74
2023/01/27 09:03:35;;;;;;;18.23;6.30;;;;;;;3.56;100.00;102516.84;5033899;28;20483;-71
2023/01/27 09:06:02;;;;;;;15.02;5.22;;;;;;;3.60;100.00;102513.09;5035336;28;20067;-71
2023/01/27 09:08:28;;;;;;;17.10;6.05;;;;;;;3.53;100.00;102518.72;5041842;28;20029;-72
2023/01/27 09:10:53;;;;;;;12.93;4.57;;;;;;;3.40;100.00;102516.72;5046936;28;20043;-72
2023/01/27 09:13:21;;;;;;;7.90;3.92;;;;;;;3.52;100.00;102522.34;5034596;28;20025;-72
2023/01/27 09:15:46;;;;;;;9.48;5.43;;;;;;;3.65;100.00;102519.97;5040672;28;20500;-72
2023/01/27 09:18:12;;;;;;;9.52;5.20;;;;;;;3.46;100.00;102516.41;5045043;28;20021;-72
2023/01/27 09:20:37;;;;;;;15.18;5.30;;;;;;;3.70;100.00;102525.09;5061027;28;20516;-73
2023/01/27 09:23:04;;;;;;;10.80;5.07;;;;;;;3.72;100.00;102523.22;5043361;28;20070;-72
2023/01/27 09:25:29;;;;;;;11.23;5.30;;;;;;;3.83;100.00;102536.94;5055936;28;20021;-72
2023/01/27 09:27:56;;;;;;;20.27;5.95;;;;;;;3.69;100.00;102531.38;5042643;28;20024;-72
2023/01/27 09:30:23;;;;;;;12.95;4.53;;;;;;;3.61;100.00;102546.97;5048822;28;20043;-72
2023/01/27 09:32:49;;;;;;;12.45;3.83;;;;;;;3.44;100.00;102543.25;5041596;28;20095;-73
2023/01/27 09:35:14;;;;;;;9.80;4.35;;;;;;;3.24;100.00;102548.66;5035492;28;20025;-72
2023/01/27 09:37:51;;;;;;;7.90;4.50;;;;;;;3.35;100.00;102535.66;5035390;28;20097;-72
2023/01/27 09:40:25;;;;;;;13.82;4.45;;;;;;;3.52;100.00;102533.06;5041594;28;20087;-72
2023/01/27 09:43:06;;;;;;;20.63;9.52;;;;;;;3.43;100.00;102537.97;5061590;28;20051;-72
2023/01/27 09:45:48;;;;;;;16.23;6.03;;;;;;;3.41;100.00;102539.84;5033000;28;20029;-72
2023/01/27 09:48:38;;;;;;;11.63;3.80;;;;;;;3.38;100.00;102530.13;5026610;28;20044;-72
2023/01/27 09:51:43;;;;;;;10.60;3.63;;;;;;;3.21;100.00;102533.59;5034379;28;20139;-72
2023/01/27 09:54:32;;;;;;;11.32;3.70;;;;;;;3.42;100.00;102537.09;5037690;28;20036;-72
2023/01/27 09:57:14;;;;;;;10.35;3.47;;;;;;;3.15;100.00;102549.06;5030913;28;20117;-72
2023/01/27 09:59:40;;;;;;;15.73;7.45;;;;;;;3.25;100.00;102539.69;5031283;28;20029;-71
2023/01/27 10:02:30;;;;;;;8.68;4.60;;;;;;;3.37;100.00;102547.16;5040305;28;20037;-72
2023/01/27 10:05:12;;;;;;;9.05;3.28;;;;;;;3.31;100.00;102542.06;5045417;28;20100;-71
2023/01/27 10:07:49;;;;;;;10.20;2.80;;;;;;;3.31;100.00;102544.75;5061969;28;20032;-72
2023/01/27 10:10:43;;;;;;;4.97;1.48;;;;;;;3.42;100.00;102553.16;5032715;28;20139;-71
2023/01/27 10:13:36;;;;;;;9.68;3.95;;;;;;;3.50;100.00;102548.31;5039457;28;20063;-71
2023/01/27 10:16:19;;;;;;;6.32;3.08;;;;;;;3.61;100.00;102552.31;5036143;28;20029;-70
2023/01/27 10:19:04;;;;;;;7.70;3.17;;;;;;;3.66;100.00;102544.94;5030783;28;20051;-70
2023/01/27 10:22:14;;;;;;;10.02;2.63;;;;;;;4.02;100.00;102543.16;5031962;28;20068;-71
2023/01/27 10:25:06;;;;;;;11.13;3.15;;;;;;;3.98;100.00;102552.31;4998281;28;20040;-71
2023/01/27 10:27:36;;;;;;;10.98;2.47;;;;;;;3.83;100.00;102547.66;5047377;28;20123;-70
2023/01/27 10:30:21;;;;;;;10.85;2.42;;;;;;;3.99;100.00;102548.69;5027460;28;20051;-71
2023/01/27 10:33:16;;;;;;;5.60;1.15;;;;;;;3.83;100.00;102547.66;5053939;28;20040;-71
2023/01/27 10:35:53;;;;;;;11.75;3.08;;;;;;;3.87;100.00;102551.94;5037175;28;20028;-71
2023/01/27 10:38:40;;;;;;;8.45;1.48;;;;;;;3.81;100.00;102549.56;5034339;28;20021;-71
2023/01/27 10:41:45;;;;;;;6.90;1.85;;;;;;;3.81;100.00;102544.19;5031013;28;20081;-72
2023/01/27 10:44:11;;;;;;;14.85;2.20;;;;;;;3.64;100.00;102547.66;5031668;28;20032;-71
2023/01/27 10:46:39;;;;;;;18.42;2.30;;;;;;;3.84;100.00;102560.13;5035145;28;20033;-71
2023/01/27 10:49:14;;;;;;;11.10;3.05;;;;;;;3.72;100.00;102539.28;5038018;28;20028;-71
2023/01/27 10:51:55;;;;;;;7.13;2.30;;;;;;;3.51;100.00;102542.00;5056677;28;20045;-71
2023/01/27 10:54:25;;;;;;;8.83;1.63;;;;;;;3.81;100.00;102538.84;5044462;28;20056;-71
2023/01/27 10:56:58;;;;;;;8.05;1.23;;;;;;;3.59;100.00;102543.50;5032802;28;20045;-70
2023/01/27 10:59:46;;;;;;;9.48;2.03;;;;;;;3.71;100.00;102532.16;5038687;28;20021;-70
2023/01/27 11:02:30;;;;;;;11.75;3.67;;;;;;;3.61;100.00;102530.88;5034157;28;20102;-70
2023/01/27 11:05:03;;;;;;;4.97;1.20;;;;;;;3.60;100.00;102539.88;5045578;28;20030;-71
2023/01/27 11:07:32;;;;;;;24.85;7.32;;;;;;;3.60;100.00;102537.19;5029720;28;20147;-71
2023/01/27 11:10:07;;;;;;;21.63;7.18;;;;;;;3.73;100.00;102524.94;5035973;28;20067;-70
2023/01/27 11:12:36;;;;;;;9.40;3.40;;;;;;;3.69;100.00;102531.38;5056991;28;20040;-71
2023/01/27 11:15:26;;;;;;;17.70;5.88;;;;;;;3.72;100.00;102520.53;5042257;28;20405;-71
2023/01/27 11:18:12;;;;;;;14.68;2.53;;;;;;;3.64;100.00;102531.59;5040443;28;20119;-71
2023/01/27 11:20:47;;;;;;;4.43;1.80;;;;;;;3.56;100.00;102538.25;5030642;28;20044;-70
2023/01/27 11:23:17;;;;;;;7.78;1.95;;;;;;;3.67;100.00;102530.59;5036991;28;20052;-70
2023/01/27 11:26:20;;;;;;;6.63;1.70;;;;;;;3.53;100.00;102524.09;5039631;28;20058;-71
2023/01/27 11:29:22;;;;;;;12.23;2.20;;;;;;;3.66;100.00;102539.59;5055360;28;20075;-70
2023/01/27 11:31:57;;;;;;;;;;;;;;;3.54;100.00;102530.31;5030475;28;20049;-70
2023/01/27 11:34:47;;;;;;;9.38;1.77;;;;;;;3.41;100.00;102535.38;5044929;28;19995;-70
2023/01/27 11:37:24;;;;;;;6.80;1.38;;;;;;;3.37;100.00;102528.41;5059593;28;20040;-70
2023/01/27 11:39:49;;;;;;;4.50;1.20;;;;;;;3.47;100.00;102527.06;5041895;28;20032;-72
2023/01/27 11:42:15;;;;;;;7.25;1.23;;;;;;;3.33;100.00;102524.16;5030399;28;20029;-72
2023/01/27 11:44:43;;;;;;;5.30;1.33;;;;;;;3.34;100.00;102523.22;5033641;28;20029;-71
2023/01/27 11:47:24;;;;;;;4.90;1.20;;;;;;;3.54;100.00;102525.81;5047270;28;20059;-71
2023/01/27 11:49:52;;;;;;;11.40;1.50;;;;;;;3.81;100.00;102517.41;5030631;28;20033;-71
2023/01/27 11:52:20;;;;;;;10.80;2.53;;;;;;;4.04;100.00;102524.31;5033477;28;20035;-71
2023/01/27 11:55:17;;;;;;;9.82;1.73;;;;;;;3.94;100.00;102521.22;5042655;28;20395;-71
2023/01/27 11:58:09;;;;;;;9.93;1.45;;;;;;;4.06;100.00;102517.94;5031147;28;20382;-71
2023/01/27 12:00:42;;;;;;;6.55;1.90;;;;;;;3.80;100.00;102515.69;5033580;28;20021;-72
2023/01/27 12:03:19;;;;;;;5.45;1.40;;;;;;;3.91;100.00;102523.16;5054966;28;20060;-71
2023/01/27 12:05:58;;;;;;;8.90;1.27;;;;;;;3.82;100.00;102524.50;5052965;28;20429;-72